Time;durP1;ratioP1;P1;durP2;ratioP2;P2;SDS_P1;SDS_P2;PMS_P1;PMS_P2;Temp;Humidity;BMP_temperature;BMP_pressure;BME280_temperature;BME280_humidity;BME280_pressure;Samples;Min_cycle;Max_cycle;Signal;HPM_P1;HPM_P2
2022/05/24 00:01:42;;;;;;;6.03;1.90;;;22.00;61.30;;;;;;4446109;32;20074;-72
2022/05/24 00:04:07;;;;;;;5.50;1.90;;;21.90;61.10;;;;;;4446034;32;20128;-72
2022/05/24 00:06:33;;;;;;;7.88;2.20;;;21.90;61.10;;;;;;4445572;32;20070;-73
2022/05/24 00:08:59;;;;;;;4.32;1.77;;;21.90;61.20;;;;;;4457679;32;20156;-72
2022/05/24 00:11:25;;;;;;;6.10;2.00;;;21.90;61.20;;;;;;4445687;32;20234;-72
2022/05/24 00:13:51;;;;;;;4.38;1.67;;;21.90;61.20;;;;;;4457747;32;20411;-72
2022/05/24 00:16:18;;;;;;;4.88;1.92;;;21.90;61.20;;;;;;4445852;32;20085;-73
2022/05/24 00:18:44;;;;;;;4.55;1.70;;;21.90;61.20;;;;;;4445955;32;20077;-72
2022/05/24 00:21:10;;;;;;;7.22;1.83;;;21.90;61.20;;;;;;4457735;32;20573;-72
2022/05/24 00:23:36;;;;;;;6.00;1.98;;;21.90;61.20;;;;;;4445763;32;20164;-72
2022/05/24 00:26:06;;;;;;;6.20;1.92;;;21.90;61.30;;;;;;4445758;32;20172;-73
2022/05/24 00:28:34;;;;;;;4.18;1.70;;;21.90;61.20;;;;;;4445705;32;20096;-73
2022/05/24 00:31:01;;;;;;;5.15;2.08;;;21.80;61.20;;;;;;4445644;32;20074;-72
2022/05/24 00:33:27;;;;;;;3.90;1.70;;;21.90;61.20;;;;;;4445879;32;20236;-72
2022/05/24 00:35:55;;;;;;;4.50;1.88;;;21.80;61.10;;;;;;4445661;32;20208;-72
2022/05/24 00:38:33;;;;;;;4.18;1.77;;;21.80;61.20;;;;;;4445304;32;20248;-72
2022/05/24 00:41:27;;;;;;;3.00;1.85;;;21.80;61.10;;;;;;4445720;32;20193;-72
2022/05/24 00:44:05;;;;;;;4.30;1.50;;;21.80;61.10;;;;;;4445975;32;20070;-72
2022/05/24 00:46:47;;;;;;;4.93;1.80;;;21.80;61.10;;;;;;4445463;32;20086;-72
2022/05/24 00:49:43;;;;;;;3.38;1.60;;;21.80;61.10;;;;;;4444648;32;20086;-72
2022/05/24 00:52:30;;;;;;;3.03;1.60;;;21.80;61.00;;;;;;4445607;32;20195;-72
2022/05/24 00:54:59;;;;;;;4.25;1.63;;;21.80;61.10;;;;;;4445462;32;20078;-73
2022/05/24 00:57:30;;;;;;;4.43;1.52;;;21.80;61.20;;;;;;4445400;32;20090;-72
2022/05/24 01:00:15;;;;;;;3.88;1.58;;;21.80;61.10;;;;;;4445600;32;20102;-72
2022/05/24 01:02:42;;;;;;;4.45;1.52;;;21.80;61.10;;;;;;4445820;32;20084;-72
2022/05/24 01:05:11;;;;;;;5.10;1.50;;;21.80;61.10;;;;;;4445169;32;20500;-72
2022/05/24 01:07:37;;;;;;;3.60;1.85;;;21.80;61.10;;;;;;4445599;32;20219;-72
2022/05/24 01:10:12;;;;;;;3.88;1.63;;;21.80;61.10;;;;;;4446569;32;20080;-73
2022/05/24 01:12:48;;;;;;;3.08;1.55;;;21.80;61.10;;;;;;4446753;32;20159;-72
2022/05/24 01:15:14;;;;;;;4.45;1.63;;;21.70;61.00;;;;;;4446517;32;20082;-73
2022/05/24 01:17:41;;;;;;;4.53;1.30;;;21.70;61.10;;;;;;4445636;32;20082;-72
2022/05/24 01:20:08;;;;;;;4.13;1.60;;;21.70;61.10;;;;;;4445254;32;20094;-72
2022/05/24 01:22:43;;;;;;;3.90;1.90;;;21.70;61.10;;;;;;4445105;32;20074;-72
2022/05/24 01:25:33;;;;;;;3.22;1.60;;;21.70;61.00;;;;;;4445217;32;20110;-72
2022/05/24 01:28:04;;;;;;;2.50;1.30;;;21.70;61.00;;;;;;4445790;32;20403;-72
2022/05/24 01:30:30;;;;;;;3.65;1.55;;;21.70;61.10;;;;;;4445016;32;20299;-73
2022/05/24 01:38:25;;;;;;;2.20;1.35;;;21.70;61.00;;;;;;4445126;32;20078;-72
2022/05/24 01:40:54;;;;;;;3.38;1.48;;;21.70;61.00;;;;;;4445207;32;20191;-73
2022/05/24 01:43:23;;;;;;;4.68;1.38;;;21.70;61.00;;;;;;4445268;32;20078;-72
2022/05/24 01:45:52;;;;;;;3.13;1.45;;;21.70;61.00;;;;;;4444915;32;20479;-72
2022/05/24 01:48:23;;;;;;;3.83;1.30;;;21.70;61.00;;;;;;4444700;32;20090;-67
2022/05/24 01:50:53;;;;;;;4.90;1.77;;;21.70;61.00;;;;;;4444784;32;20117;-66
2022/05/24 01:53:25;;;;;;;3.17;1.63;;;21.70;61.00;;;;;;4444830;32;20558;-67
2022/05/24 01:55:55;;;;;;;1.77;1.00;;;21.70;61.00;;;;;;4445321;32;20503;-67
2022/05/24 01:58:26;;;;;;;1.98;1.40;;;21.70;61.00;;;;;;4445214;32;20082;-66
2022/05/24 02:01:27;;;;;;;2.90;1.40;;;21.70;60.90;;;;;;4445237;32;20411;-67
2022/05/24 02:03:53;;;;;;;2.47;1.30;;;21.70;60.80;;;;;;4427588;32;20078;-67
2022/05/24 02:06:25;;;;;;;2.95;1.35;;;21.70;60.90;;;;;;4444863;32;20102;-67
2022/05/24 02:08:52;;;;;;;4.05;1.30;;;21.60;60.90;;;;;;4445159;32;20062;-66
2022/05/24 02:11:23;;;;;;;2.80;1.30;;;21.60;60.90;;;;;;4444801;32;20074;-67
2022/05/24 02:13:51;;;;;;;2.05;1.30;;;21.60;60.90;;;;;;4444803;32;20113;-67
2022/05/24 02:16:23;;;;;;;3.28;1.40;;;21.60;60.90;;;;;;4444961;32;20074;-67
2022/05/24 02:18:52;;;;;;;3.40;1.42;;;21.60;60.90;;;;;;4444808;32;20172;-66
2022/05/24 02:21:18;;;;;;;4.38;1.27;;;21.60;60.90;;;;;;4444940;32;20085;-66
2022/05/24 02:23:46;;;;;;;2.25;1.05;;;21.60;60.90;;;;;;4444930;32;20109;-67
2022/05/24 02:26:13;;;;;;;2.83;1.25;;;21.60;60.90;;;;;;4444703;32;20070;-67
2022/05/24 02:28:40;;;;;;;2.95;1.38;;;21.60;60.90;;;;;;4444642;32;20092;-67
2022/05/24 02:31:11;;;;;;;2.67;1.27;;;21.60;60.90;;;;;;4446610;32;20219;-67
2022/05/24 02:33:38;;;;;;;3.47;1.20;;;21.60;60.90;;;;;;4447861;32;20102;-67
2022/05/24 02:36:05;;;;;;;2.85;1.50;;;21.60;60.90;;;;;;4447399;32;20608;-67
2022/05/24 02:38:32;;;;;;;1.98;0.95;;;21.60;60.90;;;;;;4447440;32;20516;-66
2022/05/24 02:43:42;;;;;;;1.73;1.15;;;21.60;60.90;;;;;;4447700;32;20117;-67
2022/05/24 02:46:09;;;;;;;3.35;1.38;;;21.60;60.90;;;;;;4447178;32;20192;-67
2022/05/24 02:48:36;;;;;;;2.72;1.25;;;21.60;60.80;;;;;;4447206;32;20583;-67
2022/05/24 02:51:02;;;;;;;2.92;1.00;;;21.50;60.80;;;;;;4446820;32;20167;-67
2022/05/24 02:53:28;;;;;;;2.75;1.17;;;21.50;60.70;;;;;;4447154;32;20086;-67
2022/05/24 02:55:54;;;;;;;1.95;1.10;;;21.50;60.70;;;;;;4447402;32;20066;-67
2022/05/24 02:58:19;;;;;;;2.63;1.13;;;21.50;60.70;;;;;;4447032;32;20081;-67
2022/05/24 03:00:45;;;;;;;1.70;1.10;;;21.50;60.70;;;;;;4458933;32;20085;-67
2022/05/24 03:03:11;;;;;;;2.58;1.20;;;21.50;60.70;;;;;;4447300;32;20211;-67
2022/05/24 03:05:37;;;;;;;4.22;1.13;;;21.50;60.70;;;;;;4446974;32;20070;-67
2022/05/24 03:10:47;;;;;;;1.70;1.20;;;21.50;60.70;;;;;;4446438;32;20133;-67
2022/05/24 03:15:58;;;;;;;1.70;0.90;;;21.50;60.70;;;;;;4446904;32;20419;-67
2022/05/24 03:18:24;;;;;;;2.13;1.05;;;21.50;60.70;;;;;;4445993;32;20476;-66
2022/05/24 03:20:50;;;;;;;2.55;1.35;;;21.50;60.70;;;;;;4446826;32;20092;-67
2022/05/24 03:23:16;;;;;;;3.45;1.10;;;21.50;60.60;;;;;;4445844;32;20415;-67
2022/05/24 03:25:42;;;;;;;2.13;0.93;;;21.50;60.70;;;;;;4447103;32;20096;-67
2022/05/24 03:28:09;;;;;;;1.90;0.73;;;21.50;60.70;;;;;;4458677;32;20080;-67
2022/05/24 03:30:42;;;;;;;2.00;0.85;;;21.50;60.60;;;;;;4446427;32;20140;-67
2022/05/24 03:33:09;;;;;;;1.52;0.90;;;21.50;60.60;;;;;;4446847;32;20078;-67
2022/05/24 03:35:36;;;;;;;2.25;1.00;;;21.50;60.60;;;;;;4446583;32;20163;-67
2022/05/24 03:38:03;;;;;;;2.42;0.88;;;21.50;60.60;;;;;;4446832;32;20058;-67
2022/05/24 03:40:29;;;;;;;2.55;1.23;;;21.40;60.60;;;;;;4446341;32;20156;-67
2022/05/24 03:42:55;;;;;;;1.10;0.90;;;21.40;60.60;;;;;;4445844;32;20094;-66
2022/05/24 03:45:22;;;;;;;1.55;0.93;;;21.40;60.50;;;;;;4458127;32;20136;-66
2022/05/24 03:47:48;;;;;;;2.97;1.40;;;21.40;60.50;;;;;;4446607;32;20077;-67
2022/05/24 03:50:14;;;;;;;3.22;1.05;;;21.40;60.50;;;;;;4445906;32;20486;-67
2022/05/24 03:52:40;;;;;;;1.83;1.08;;;21.40;60.50;;;;;;4446214;32;20118;-67
2022/05/24 03:55:06;;;;;;;0.98;0.77;;;21.40;60.50;;;;;;4446228;32;20523;-66
2022/05/24 04:00:20;;;;;;;1.38;1.00;;;21.40;60.50;;;;;;4446576;32;20074;-66
2022/05/24 04:02:46;;;;;;;2.08;0.90;;;21.40;60.50;;;;;;4457807;32;20535;-67
2022/05/24 04:05:12;;;;;;;2.28;0.98;;;21.40;60.50;;;;;;4446139;32;20132;-66
2022/05/24 04:07:39;;;;;;;1.67;0.88;;;21.40;60.50;;;;;;4446141;32;20092;-67
2022/05/24 04:10:07;;;;;;;1.42;0.75;;;21.40;60.50;;;;;;4446124;32;20117;-67
2022/05/24 04:12:33;;;;;;;1.40;0.90;;;21.40;60.50;;;;;;4446001;32;20094;-67
2022/05/24 04:14:59;;;;;;;1.20;0.90;;;21.40;60.50;;;;;;4457524;32;20098;-66
2022/05/24 04:17:25;;;;;;;1.77;0.80;;;21.40;60.50;;;;;;4445889;32;20155;-67
2022/05/24 04:19:51;;;;;;;3.50;1.30;;;21.40;60.50;;;;;;4444877;32;20196;-66
2022/05/24 04:22:17;;;;;;;1.60;0.88;;;21.40;60.50;;;;;;4445972;32;20567;-67
2022/05/24 04:24:43;;;;;;;1.98;1.00;;;21.40;60.50;;;;;;4457738;32;20066;-67
2022/05/24 04:27:09;;;;;;;1.30;0.80;;;21.40;60.50;;;;;;4446050;32;20137;-67
2022/05/24 04:29:37;;;;;;;2.13;1.08;;;21.40;60.50;;;;;;4445761;32;20515;-67
2022/05/24 04:32:04;;;;;;;2.17;0.85;;;21.40;60.50;;;;;;4445941;32;20074;-67
2022/05/24 04:34:30;;;;;;;1.88;0.95;;;21.30;60.50;;;;;;4445731;32;20102;-67
2022/05/24 04:36:56;;;;;;;1.58;1.00;;;21.30;60.40;;;;;;4444824;32;20550;-67
2022/05/24 04:39:22;;;;;;;2.03;1.00;;;21.40;60.50;;;;;;4445669;32;20314;-66
2022/05/24 04:44:32;;;;;;;2.45;0.90;;;21.30;60.50;;;;;;4445662;32;20081;-67
2022/05/24 04:47:07;;;;;;;1.50;0.82;;;21.30;60.40;;;;;;4445214;32;20071;-67
2022/05/24 04:49:33;;;;;;;1.85;0.98;;;21.30;60.50;;;;;;4445683;32;20074;-67
2022/05/24 04:51:59;;;;;;;2.08;0.90;;;21.30;60.50;;;;;;4445384;32;20118;-67
2022/05/24 04:54:26;;;;;;;0.93;0.60;;;21.30;60.50;;;;;;4445249;32;20128;-66
2022/05/24 04:56:51;;;;;;;3.13;1.00;;;21.30;60.50;;;;;;4445156;32;20070;-66
2022/05/24 04:59:17;;;;;;;1.67;0.98;;;21.30;60.50;;;;;;4445413;32;20062;-67
2022/05/24 05:01:44;;;;;;;2.08;0.73;;;21.30;60.50;;;;;;4456967;32;20081;-67
2022/05/24 05:04:10;;;;;;;1.60;0.88;;;21.30;60.50;;;;;;4445307;32;20228;-67
2022/05/24 05:06:36;;;;;;;1.30;0.82;;;21.30;60.50;;;;;;4445586;32;20396;-67
2022/05/24 05:09:02;;;;;;;1.15;0.70;;;21.30;60.50;;;;;;4456983;32;20074;-67
2022/05/24 05:11:28;;;;;;;3.15;1.00;;;21.30;60.50;;;;;;4445216;32;20216;-66
2022/05/24 05:13:54;;;;;;;0.80;0.70;;;21.30;60.50;;;;;;4445514;32;20088;-67
2022/05/24 05:16:20;;;;;;;0.98;0.80;;;21.30;60.50;;;;;;4445187;32;20381;-66
2022/05/24 05:18:46;;;;;;;2.05;0.90;;;21.30;60.50;;;;;;4445317;32;20184;-66
2022/05/24 05:21:12;;;;;;;1.17;0.70;;;21.30;60.50;;;;;;4444971;32;20216;-66
2022/05/24 05:23:37;;;;;;;0.90;0.75;;;21.30;60.50;;;;;;4445185;32;20207;-66
2022/05/24 05:26:03;;;;;;;1.90;0.90;;;21.30;60.50;;;;;;4445398;32;20505;-66
2022/05/24 05:28:29;;;;;;;1.20;0.80;;;21.30;60.50;;;;;;4445149;32;20542;-67
2022/05/24 05:33:40;;;;;;;0.90;0.60;;;21.20;60.50;;;;;;4445364;32;20496;-67
2022/05/24 05:36:06;;;;;;;1.20;0.80;;;21.30;60.60;;;;;;4445117;32;20081;-66
2022/05/24 05:38:32;;;;;;;1.30;0.73;;;21.30;60.50;;;;;;4444832;32;20097;-67
2022/05/24 05:40:59;;;;;;;1.23;0.73;;;21.30;60.50;;;;;;4445307;32;20066;-66
2022/05/24 05:43:25;;;;;;;1.33;0.77;;;21.20;60.50;;;;;;4445196;32;20106;-66
2022/05/24 05:45:56;;;;;;;1.35;0.73;;;21.30;60.50;;;;;;4445026;32;20114;-67
2022/05/24 05:48:22;;;;;;;0.80;0.80;;;21.30;60.60;;;;;;4445246;32;20474;-66
2022/05/24 05:50:48;;;;;;;2.50;0.80;;;21.30;60.50;;;;;;4444757;32;20066;-66
2022/05/24 05:53:16;;;;;;;0.80;0.57;;;21.30;60.50;;;;;;4456749;32;20078;-67
2022/05/24 05:55:42;;;;;;;1.42;0.60;;;21.30;60.50;;;;;;4444714;32;20211;-66
2022/05/24 05:58:08;;;;;;;1.98;0.98;;;21.30;60.50;;;;;;4456550;32;20623;-66
2022/05/24 06:00:35;;;;;;;1.25;0.75;;;21.30;60.50;;;;;;4444976;32;20074;-67
2022/05/24 06:03:01;;;;;;;0.90;0.65;;;21.30;60.50;;;;;;4444837;32;20427;-66
2022/05/24 06:05:27;;;;;;;1.35;0.85;;;21.30;60.50;;;;;;4446524;32;20618;-67
2022/05/24 06:07:58;;;;;;;1.08;0.68;;;21.30;60.50;;;;;;4447743;32;20613;-66
2022/05/24 06:10:25;;;;;;;1.70;0.70;;;21.30;60.50;;;;;;4448144;32;20070;-66
2022/05/24 06:12:51;;;;;;;1.70;0.90;;;21.30;60.60;;;;;;4447481;32;20118;-66
2022/05/24 06:15:19;;;;;;;0.80;0.70;;;21.30;60.60;;;;;;4447554;32;20085;-66
2022/05/24 06:17:50;;;;;;;1.15;0.70;;;21.30;60.50;;;;;;4447729;32;20078;-66
2022/05/24 06:20:17;;;;;;;1.27;0.70;;;21.20;60.50;;;;;;4448058;32;20224;-67
2022/05/24 06:22:43;;;;;;;1.10;0.80;;;21.20;60.40;;;;;;4446711;32;20499;-66
2022/05/24 06:25:10;;;;;;;0.60;0.60;;;21.20;60.40;;;;;;4447461;32;20113;-67
2022/05/24 06:27:36;;;;;;;1.27;0.73;;;21.20;60.40;;;;;;4447696;32;20312;-67
2022/05/24 06:30:03;;;;;;;1.13;0.73;;;21.30;60.40;;;;;;4459735;32;20132;-67
2022/05/24 06:32:30;;;;;;;2.25;0.88;;;21.20;60.40;;;;;;4446888;32;20106;-67
2022/05/24 06:34:56;;;;;;;1.48;0.95;;;21.20;60.40;;;;;;4447679;32;20090;-67
2022/05/24 06:37:24;;;;;;;2.17;0.60;;;21.20;60.40;;;;;;4459382;32;20085;-67
2022/05/24 06:39:50;;;;;;;1.17;0.75;;;21.20;60.40;;;;;;4447393;32;20114;-67
2022/05/24 06:42:16;;;;;;;0.77;0.60;;;21.20;60.40;;;;;;4447220;32;20074;-67
2022/05/24 06:44:42;;;;;;;0.90;0.63;;;21.20;60.40;;;;;;4447269;32;20140;-68
2022/05/24 06:47:08;;;;;;;1.30;0.65;;;21.20;60.40;;;;;;4447075;32;20090;-67
2022/05/24 06:49:36;;;;;;;1.05;0.70;;;21.20;60.40;;;;;;4447409;32;20181;-68
2022/05/24 06:52:03;;;;;;;1.27;0.70;;;21.20;60.40;;;;;;4459109;32;20403;-67
2022/05/24 06:54:29;;;;;;;0.65;0.60;;;21.20;60.40;;;;;;4447439;32;20275;-66
2022/05/24 06:56:55;;;;;;;1.08;0.70;;;21.20;60.40;;;;;;4447240;32;20082;-66
2022/05/24 07:05:18;;;;;;;3.17;1.40;;;21.20;60.40;;;;;;4447369;32;20078;-67
2022/05/24 07:07:44;;;;;;;3.35;1.05;;;21.20;60.40;;;;;;4446957;32;20183;-66
2022/05/24 07:10:12;;;;;;;1.73;1.30;;;21.20;60.60;;;;;;4446930;32;20525;-66
2022/05/24 07:12:39;;;;;;;4.15;1.40;;;21.10;60.60;;;;;;4447055;32;20172;-67
2022/05/24 07:15:06;;;;;;;3.28;1.70;;;21.20;60.80;;;;;;4446796;32;20093;-67
2022/05/24 07:17:32;;;;;;;5.28;2.08;;;21.10;60.80;;;;;;4446857;32;20088;-67
2022/05/24 07:19:58;;;;;;;3.33;1.88;;;21.10;60.80;;;;;;4446941;32;20487;-66
2022/05/24 07:22:24;;;;;;;4.82;2.17;;;21.10;60.70;;;;;;4446766;32;20101;-67
2022/05/24 07:24:50;;;;;;;3.72;1.90;;;21.10;60.80;;;;;;4446779;32;20078;-66
2022/05/24 07:27:19;;;;;;;3.08;1.80;;;21.10;60.80;;;;;;4458853;32;20403;-67
2022/05/24 07:29:45;;;;;;;4.43;2.05;;;21.10;61.00;;;;;;4446587;32;20536;-66
2022/05/24 07:32:11;;;;;;;5.22;1.85;;;21.10;61.10;;;;;;4446564;32;20494;-66
2022/05/24 07:34:37;;;;;;;4.68;2.20;;;21.10;61.10;;;;;;4445219;32;20062;-67
2022/05/24 07:37:07;;;;;;;3.35;1.80;;;21.10;61.10;;;;;;4446389;32;20096;-67
2022/05/24 07:39:33;;;;;;;4.07;2.05;;;21.10;61.10;;;;;;4446242;32;20101;-67
2022/05/24 07:47:33;;;;;;;4.45;1.88;;;21.10;61.10;;;;;;4446656;32;20085;-67
2022/05/24 07:49:59;;;;;;;4.43;1.98;;;21.10;61.10;;;;;;4446158;32;20097;-67
2022/05/24 07:52:25;;;;;;;3.85;1.75;;;21.10;61.00;;;;;;4445917;32;20086;-67
2022/05/24 07:54:51;;;;;;;5.70;2.20;;;21.10;61.10;;;;;;4446407;32;20086;-67
2022/05/24 07:57:17;;;;;;;5.38;1.65;;;21.10;61.10;;;;;;4458149;32;20144;-67
2022/05/24 07:59:47;;;;;;;4.20;1.88;;;21.10;61.10;;;;;;4446130;32;20081;-67
2022/05/24 08:02:17;;;;;;;5.45;2.17;;;21.10;61.10;;;;;;4445929;32;20098;-67
2022/05/24 08:04:44;;;;;;;5.85;2.10;;;21.10;61.10;;;;;;4446163;32;20165;-67
2022/05/24 08:07:10;;;;;;;5.47;1.95;;;21.10;61.10;;;;;;4446175;32;20575;-67
2022/05/24 08:09:36;;;;;;;3.83;1.60;;;21.10;61.10;;;;;;4444926;32;20073;-68
2022/05/24 08:12:03;;;;;;;5.38;1.63;;;21.10;61.10;;;;;;4445059;32;20086;-67
2022/05/24 08:14:29;;;;;;;6.85;1.92;;;21.10;61.10;;;;;;4446097;32;20156;-66
2022/05/24 08:16:55;;;;;;;4.35;1.52;;;21.10;61.20;;;;;;4445658;32;20090;-67
2022/05/24 08:19:22;;;;;;;5.32;2.10;;;21.00;61.10;;;;;;4446078;32;20125;-67
2022/05/24 08:21:48;;;;;;;5.15;1.85;;;21.10;61.10;;;;;;4445853;32;20216;-67
2022/05/24 08:24:15;;;;;;;5.38;1.83;;;21.00;61.00;;;;;;4445825;32;20389;-66
2022/05/24 08:26:41;;;;;;;4.65;1.90;;;21.00;61.00;;;;;;4445798;32;20070;-67
2022/05/24 08:29:07;;;;;;;4.75;2.00;;;21.00;60.90;;;;;;4445259;32;20518;-66
2022/05/24 08:31:33;;;;;;;5.18;2.17;;;21.00;60.80;;;;;;4445486;32;20069;-67
2022/05/24 08:33:58;;;;;;;4.13;2.17;;;21.00;60.80;;;;;;4445641;32;20088;-66
2022/05/24 08:36:24;;;;;;;6.18;1.92;;;21.00;60.70;;;;;;4445544;32;20082;-66
2022/05/24 08:38:51;;;;;;;4.50;2.13;;;21.00;60.60;;;;;;4445583;32;20422;-66
2022/05/24 08:42:03;;;;;;;6.03;2.22;;;21.00;60.60;;;;;;4445484;32;20062;-67
2022/05/24 08:50:05;;;;;;;4.97;2.40;;;21.00;60.50;;;;;;4445349;32;20085;-66
2022/05/24 08:52:39;;;;;;;4.32;2.08;;;21.00;60.60;;;;;;4445088;32;20105;-66
2022/05/24 08:55:06;;;;;;;4.82;1.95;;;20.90;60.40;;;;;;4445460;32;20090;-65
2022/05/24 08:57:38;;;;;;;3.55;1.80;;;21.00;60.40;;;;;;4445321;32;20133;-66
2022/05/24 09:00:13;;;;;;;4.03;1.67;;;21.00;60.50;;;;;;4445650;32;20104;-66
2022/05/24 09:02:44;;;;;;;2.67;1.50;;;21.00;60.50;;;;;;4445642;32;20247;-67
2022/05/24 09:05:21;;;;;;;4.40;1.60;;;21.00;60.60;;;;;;4445588;32;20109;-66
2022/05/24 09:07:48;;;;;;;4.25;1.75;;;21.10;60.60;;;;;;4445353;32;20161;-66
2022/05/24 09:10:21;;;;;;;5.97;1.60;;;21.10;60.50;;;;;;4445184;32;20228;-66
2022/05/24 09:13:02;;;;;;;4.57;1.80;;;21.10;60.50;;;;;;4444997;32;20058;-66
2022/05/24 09:15:34;;;;;;;4.57;1.83;;;21.10;60.30;;;;;;4445382;32;20080;-66
2022/05/24 09:17:59;;;;;;;3.33;1.55;;;21.20;60.50;;;;;;4445068;32;20106;-65
2022/05/24 09:20:34;;;;;;;3.17;1.88;;;21.10;60.40;;;;;;4456751;32;20522;-67
2022/05/24 09:23:19;;;;;;;7.45;1.85;;;21.10;60.40;;;;;;4445183;32;20107;-67
2022/05/24 09:25:56;;;;;;;4.18;1.60;;;21.10;60.10;;;;;;4445158;32;20084;-66
2022/05/24 09:28:43;;;;;;;4.30;1.40;;;21.10;60.20;;;;;;4444717;32;20310;-66
2022/05/24 09:31:37;;;;;;;8.13;1.98;;;21.10;60.40;;;;;;4444947;32;20074;-65
2022/05/24 09:34:07;;;;;;;10.15;1.40;;;21.10;60.30;;;;;;4444976;32;20220;-67
2022/05/24 09:36:49;;;;;;;6.35;1.48;;;21.10;60.40;;;;;;4445023;32;20104;-67
2022/05/24 09:39:26;;;;;;;4.32;1.55;;;21.10;60.20;;;;;;4445163;32;20078;-67
2022/05/24 09:42:04;;;;;;;8.20;1.60;;;21.10;60.00;;;;;;4448173;32;20084;-67
2022/05/24 09:44:57;;;;;;;3.17;1.15;;;21.10;60.00;;;;;;4448190;32;20693;-67
2022/05/24 09:47:52;;;;;;;4.07;1.20;;;21.10;59.90;;;;;;4448372;32;20171;-67
2022/05/24 09:50:22;;;;;;;4.78;1.17;;;21.10;59.90;;;;;;4446311;32;20074;-67
2022/05/24 09:53:08;;;;;;;3.30;1.10;;;21.10;59.80;;;;;;4460086;32;20415;-67
2022/05/24 09:55:41;;;;;;;4.68;1.20;;;21.10;59.80;;;;;;4447841;32;20163;-67
2022/05/24 09:58:30;;;;;;;3.83;1.13;;;21.10;59.80;;;;;;4447839;32;20078;-67
2022/05/24 10:01:02;;;;;;;2.85;1.15;;;21.10;59.70;;;;;;4448345;32;20077;-67
2022/05/24 10:03:43;;;;;;;5.32;1.17;;;21.10;59.80;;;;;;4448259;32;20403;-67
2022/05/24 10:06:26;;;;;;;6.28;1.27;;;21.10;59.80;;;;;;4448250;32;20208;-66
2022/05/24 10:09:16;;;;;;;2.83;1.13;;;21.10;59.80;;;;;;4447891;32;20171;-68
2022/05/24 10:11:56;;;;;;;3.20;0.90;;;21.10;59.80;;;;;;4447659;32;20645;-66
2022/05/24 10:14:39;;;;;;;3.13;1.20;;;21.10;60.00;;;;;;4447781;32;20212;-67
2022/05/24 10:17:12;;;;;;;3.08;0.90;;;21.10;60.00;;;;;;4448050;32;20184;-67
2022/05/24 10:19:38;;;;;;;2.65;0.75;;;21.20;60.00;;;;;;4447906;32;20085;-67
2022/05/24 10:22:37;;;;;;;3.88;1.05;;;21.20;60.00;;;;;;4446717;32;20085;-67
2022/05/24 10:25:35;;;;;;;1.92;0.90;;;21.20;60.00;;;;;;4459271;32;20074;-66
2022/05/24 10:28:19;;;;;;;2.13;0.90;;;21.20;60.00;;;;;;4419404;32;20205;-66
2022/05/24 10:31:12;;;;;;;2.50;1.08;;;21.20;60.00;;;;;;4447717;32;20499;-67
2022/05/24 10:39:52;;;;;;;2.10;1.05;;;21.20;60.00;;;;;;4447417;32;20086;-67
2022/05/24 10:42:48;;;;;;;2.83;0.82;;;21.20;59.70;;;;;;4447474;32;20492;-67
2022/05/24 10:45:22;;;;;;;3.63;1.23;;;21.10;59.30;;;;;;4447353;32;20183;-67
2022/05/24 10:47:55;;;;;;;2.85;0.70;;;21.10;59.10;;;;;;4447267;32;20511;-68
2022/05/24 10:50:44;;;;;;;2.35;1.00;;;21.10;59.20;;;;;;4447050;32;20082;-67
2022/05/24 10:53:17;;;;;;;2.65;0.80;;;21.10;58.80;;;;;;4459157;32;20172;-67
2022/05/24 10:56:13;;;;;;;3.17;0.85;;;21.10;59.10;;;;;;4446977;32;20070;-63
2022/05/24 10:58:41;;;;;;;1.02;0.52;;;21.10;59.10;;;;;;4447197;32;20074;-67
2022/05/24 11:01:24;;;;;;;2.78;0.88;;;21.00;59.20;;;;;;4447378;32;20097;-67
2022/05/24 11:03:56;;;;;;;3.35;1.02;;;21.00;59.00;;;;;;4447079;32;20545;-67
2022/05/24 11:06:45;;;;;;;3.55;1.30;;;21.00;59.10;;;;;;4447150;32;20096;-67
2022/05/24 11:09:16;;;;;;;4.05;1.00;;;21.00;59.20;;;;;;4447163;32;20163;-68
2022/05/24 11:11:50;;;;;;;4.63;1.08;;;21.00;59.30;;;;;;4447014;32;20097;-68
2022/05/24 11:14:30;;;;;;;18.23;1.25;;;21.00;59.30;;;;;;4446612;32;20167;-67
2022/05/24 11:16:56;;;;;;;17.08;1.45;;;21.00;59.40;;;;;;4447236;32;20204;-66
2022/05/24 11:19:25;;;;;;;23.52;1.38;;;21.00;59.60;;;;;;4446972;32;20074;-67
2022/05/24 11:22:00;;;;;;;11.88;1.20;;;21.00;60.50;;;;;;4446860;32;20175;-68
2022/05/24 11:24:35;;;;;;;14.93;1.20;;;21.00;59.70;;;;;;4446753;32;20121;-70
2022/05/24 11:27:02;;;;;;;18.95;1.35;;;21.00;59.70;;;;;;4458485;32;20121;-70
2022/05/24 11:29:46;;;;;;;9.77;1.33;;;20.90;59.70;;;;;;4446570;32;20192;-68
2022/05/24 11:32:36;;;;;;;12.13;1.52;;;20.90;59.50;;;;;;4446618;32;20407;-70
2022/05/24 11:35:12;;;;;;;9.32;1.17;;;20.90;59.50;;;;;;4446553;32;20082;-69
2022/05/24 11:37:42;;;;;;;4.00;1.23;;;20.90;59.50;;;;;;4446638;32;20089;-69
2022/05/24 11:40:30;;;;;;;11.80;1.13;;;20.90;59.50;;;;;;4445570;32;20097;-70
2022/05/24 11:42:59;;;;;;;5.50;1.00;;;20.90;59.40;;;;;;4446638;32;20074;-70
2022/05/24 11:45:28;;;;;;;11.18;1.20;;;20.90;59.60;;;;;;4446567;32;20164;-70
2022/05/24 11:47:54;;;;;;;7.13;1.10;;;20.90;59.60;;;;;;4458236;32;20082;-70
2022/05/24 11:50:31;;;;;;;3.38;1.10;;;20.80;59.70;;;;;;4446393;32;20404;-70
2022/05/24 11:53:11;;;;;;;3.15;1.00;;;20.90;59.60;;;;;;4446338;32;20499;-71
2022/05/24 11:55:48;;;;;;;4.22;0.98;;;20.90;59.70;;;;;;4446279;32;20070;-71
2022/05/24 11:58:20;;;;;;;5.43;1.00;;;20.80;59.70;;;;;;4458397;32;20160;-70
2022/05/24 12:01:09;;;;;;;3.83;1.10;;;20.90;59.80;;;;;;4457881;32;20163;-69
2022/05/24 12:09:23;;;;;;;2.20;0.88;;;20.90;60.00;;;;;;4446471;32;20094;-70
2022/05/24 12:12:19;;;;;;;3.28;1.00;;;20.90;60.10;;;;;;4446199;32;20423;-69
2022/05/24 12:14:45;;;;;;;1.95;1.05;;;20.90;60.20;;;;;;4446076;32;20074;-70
2022/05/24 12:17:24;;;;;;;4.55;1.13;;;20.90;60.20;;;;;;4445669;32;20121;-70
2022/05/24 12:19:52;;;;;;;2.78;0.82;;;20.90;60.30;;;;;;4445976;32;20094;-69
2022/05/24 12:22:27;;;;;;;3.53;0.70;;;20.90;60.30;;;;;;4457789;32;20078;-69
2022/05/24 12:25:03;;;;;;;2.25;0.63;;;20.90;60.30;;;;;;4445937;32;20062;-68
2022/05/24 12:27:35;;;;;;;1.90;0.70;;;20.90;60.20;;;;;;4446038;32;20089;-69
2022/05/24 12:30:31;;;;;;;3.40;0.60;;;21.00;60.30;;;;;;4457456;32;20062;-69
2022/05/24 12:33:13;;;;;;;3.65;0.70;;;21.00;60.30;;;;;;4446184;32;20086;-69
2022/05/24 12:35:58;;;;;;;2.05;0.50;;;21.00;60.30;;;;;;4445462;32;20563;-69
2022/05/24 12:38:26;;;;;;;2.28;0.63;;;21.00;60.20;;;;;;4445637;32;20082;-69
2022/05/24 12:41:16;;;;;;;3.03;0.60;;;21.00;60.20;;;;;;4445780;32;20287;-69
2022/05/24 12:44:17;;;;;;;4.38;0.80;;;21.10;60.30;;;;;;4446040;32;20081;-70
2022/05/24 12:46:48;;;;;;;2.00;0.60;;;21.10;60.20;;;;;;4432847;32;20143;-71
2022/05/24 12:49:32;;;;;;;2.53;0.60;;;21.10;60.20;;;;;;4445739;32;20093;-70
2022/05/24 12:52:12;;;;;;;;;;;21.10;60.20;;;;;;4446082;32;20066;-70
2022/05/24 12:54:51;;;;;;;1.83;0.80;;;21.10;60.10;;;;;;4445466;32;19966;-69
2022/05/24 12:57:23;;;;;;;2.38;0.70;;;21.10;60.20;;;;;;4445272;32;20159;-69
2022/05/24 12:59:58;;;;;;;6.63;0.95;;;21.10;60.20;;;;;;4445800;32;20085;-69
2022/05/24 13:02:30;;;;;;;3.50;0.52;;;21.10;60.10;;;;;;4445091;32;20074;-70
2022/05/24 13:05:21;;;;;;;3.53;0.52;;;21.10;60.10;;;;;;4445265;32;20167;-70
2022/05/24 13:07:58;;;;;;;4.53;0.77;;;21.10;60.00;;;;;;4445319;32;20070;-70
2022/05/24 13:10:39;;;;;;;2.00;0.70;;;21.10;60.10;;;;;;4445537;32;20096;-70
2022/05/24 13:13:13;;;;;;;1.27;0.60;;;21.10;60.00;;;;;;4445123;32;20070;-70
2022/05/24 13:15:46;;;;;;;2.47;0.60;;;21.10;60.00;;;;;;4444971;32;20208;-71
2022/05/24 13:18:15;;;;;;;1.95;0.47;;;21.10;59.90;;;;;;4445425;32;20066;-70
2022/05/24 13:20:44;;;;;;;3.78;0.45;;;21.10;59.80;;;;;;4444860;32;20110;-70
2022/05/24 13:23:16;;;;;;;2.50;0.70;;;21.10;59.80;;;;;;4445140;32;20535;-70
2022/05/24 13:25:54;;;;;;;3.58;0.80;;;21.10;59.60;;;;;;4445223;32;20094;-70
2022/05/24 13:28:35;;;;;;;1.50;0.55;;;21.10;59.50;;;;;;4456957;32;20080;-71
2022/05/24 13:34:19;;;;;;;2.45;0.55;;;21.10;59.10;;;;;;4445505;32;20513;-70
2022/05/24 13:36:50;;;;;;;2.47;0.40;;;21.10;59.40;;;;;;4445356;32;20062;-74
2022/05/24 13:39:27;;;;;;;3.33;0.63;;;21.10;59.20;;;;;;4443465;32;20090;-70
2022/05/24 13:42:05;;;;;;;2.47;0.60;;;21.10;59.20;;;;;;4445308;32;20074;-70
2022/05/24 13:44:33;;;;;;;1.98;0.60;;;21.10;59.30;;;;;;4445442;32;20114;-70
2022/05/24 13:47:03;;;;;;;2.40;0.63;;;21.10;60.00;;;;;;4444999;32;20094;-70
2022/05/24 13:49:38;;;;;;;3.25;0.75;;;21.10;58.90;;;;;;4445254;32;20100;-70
2022/05/24 13:52:14;;;;;;;3.83;0.70;;;21.10;58.90;;;;;;4444743;32;20407;-70
2022/05/24 13:54:40;;;;;;;1.90;0.60;;;21.10;58.70;;;;;;4444977;32;20098;-71
2022/05/24 13:57:22;;;;;;;4.25;0.70;;;21.10;58.80;;;;;;4443996;32;20074;-70
2022/05/24 14:00:20;;;;;;;4.07;0.80;;;21.10;58.30;;;;;;4444999;32;20074;-70
2022/05/24 14:02:53;;;;;;;2.65;0.55;;;21.10;58.10;;;;;;4438633;32;20062;-70
2022/05/24 14:05:30;;;;;;;2.78;0.50;;;21.10;58.40;;;;;;4444602;32;20088;-71